createdAt,value
2022-08-22T00:02:42.589Z,17.70
2022-08-22T00:03:10.285Z,19.80
2022-08-22T00:05:51.114Z,13.40
2022-08-22T00:08:23.820Z,13.40
2022-08-22T00:10:53.590Z,13.30
2022-08-22T00:13:43.121Z,13.30
2022-08-22T00:16:20.206Z,13.20
2022-08-22T00:19:01.323Z,13.10
2022-08-22T00:21:36.164Z,13.20
2022-08-22T00:24:04.803Z,13.20
2022-08-22T00:26:49.043Z,13.20
2022-08-22T00:29:21.806Z,13.20
2022-08-22T00:32:05.501Z,13.10
2022-08-22T00:34:48.519Z,13.10
2022-08-22T00:37:19.078Z,13.00
2022-08-22T00:40:18.297Z,13.10
2022-08-22T00:42:54.023Z,13.10
2022-08-22T00:45:58.544Z,13.00
2022-08-22T00:48:55.136Z,13.10
2022-08-22T00:52:04.694Z,13.00
2022-08-22T00:55:19.866Z,12.90
2022-08-22T00:57:57.939Z,12.90
2022-08-22T01:00:28.942Z,13.00
2022-08-22T01:03:33.859Z,13.00
2022-08-22T01:06:06.561Z,13.10
2022-08-22T01:08:42.621Z,13.10
2022-08-22T01:11:24.343Z,13.00
2022-08-22T01:14:02.865Z,12.90
2022-08-22T01:16:58.345Z,12.80
2022-08-22T01:19:59.190Z,12.70
2022-08-22T01:23:10.334Z,12.60
2022-08-22T01:26:09.856Z,12.50
2022-08-22T01:29:09.453Z,12.40
2022-08-22T01:32:29.146Z,12.50
2022-08-22T01:35:27.975Z,12.40
2022-08-22T01:38:21.906Z,12.40
2022-08-22T01:40:57.949Z,12.50
2022-08-22T01:44:03.264Z,12.40
2022-08-22T01:46:56.942Z,12.40
2022-08-22T01:49:50.220Z,12.40
2022-08-22T01:52:39.135Z,12.40
2022-08-22T01:55:09.095Z,12.40
2022-08-22T01:58:01.006Z,12.40
2022-08-22T02:00:50.461Z,12.30
2022-08-22T02:03:51.344Z,12.20
2022-08-22T02:06:31.152Z,12.20
2022-08-22T02:09:08.176Z,12.30
2022-08-22T02:11:48.103Z,12.30
2022-08-22T02:14:23.761Z,12.20
2022-08-22T02:17:20.209Z,12.10
2022-08-22T02:20:02.646Z,12.00
2022-08-22T02:22:44.378Z,12.00
2022-08-22T02:25:21.411Z,12.00
2022-08-22T02:28:00.283Z,11.90
2022-08-22T02:30:54.948Z,11.90
2022-08-22T02:33:30.902Z,11.90
2022-08-22T02:36:09.555Z,11.90
2022-08-22T02:38:50.257Z,11.80
2022-08-22T02:41:47.186Z,11.80
2022-08-22T02:44:26.400Z,11.80
2022-08-22T02:47:31.600Z,11.60
2022-08-22T02:50:19.820Z,11.70
2022-08-22T02:53:05.196Z,11.70
2022-08-22T02:55:39.245Z,11.50
2022-08-22T02:58:32.587Z,11.60
2022-08-22T03:01:02.028Z,11.60
2022-08-22T03:03:36.063Z,11.60
2022-08-22T03:06:08.977Z,11.60
2022-08-22T03:08:42.923Z,11.60
2022-08-22T03:11:28.773Z,11.60
2022-08-22T03:14:02.700Z,11.60
2022-08-22T03:16:35.853Z,11.60
2022-08-22T03:19:06.096Z,11.60
2022-08-22T03:21:40.776Z,11.50
2022-08-22T03:24:22.803Z,11.60
2022-08-22T03:27:05.142Z,11.50
2022-08-22T03:29:44.155Z,11.40
2022-08-22T03:32:21.198Z,11.50
2022-08-22T03:35:03.723Z,11.40
2022-08-22T03:37:39.412Z,11.40
2022-08-22T03:40:06.087Z,11.40
2022-08-22T03:42:57.545Z,11.40
2022-08-22T03:45:49.391Z,11.50
2022-08-22T03:48:47.825Z,11.50
2022-08-22T03:51:29.038Z,11.50
2022-08-22T03:54:15.318Z,11.40
2022-08-22T03:57:03.921Z,11.30
2022-08-22T03:59:45.709Z,11.30
2022-08-22T04:02:42.816Z,11.30
2022-08-22T04:05:41.087Z,11.30
2022-08-22T04:08:45.903Z,11.40
2022-08-22T04:11:37.215Z,11.30
2022-08-22T04:14:17.354Z,11.30
2022-08-22T04:16:58.391Z,11.30
2022-08-22T04:19:57.466Z,11.30
2022-08-22T04:22:30.097Z,11.30
2022-08-22T04:24:56.691Z,11.30
2022-08-22T04:27:55.823Z,11.20
2022-08-22T04:30:33.396Z,11.20
2022-08-22T04:33:14.297Z,11.20
2022-08-22T04:35:57.321Z,11.10
2022-08-22T04:38:47.668Z,11.10
2022-08-22T04:41:24.434Z,11.10
2022-08-22T04:43:58.417Z,11.00
2022-08-22T04:46:36.596Z,11.00
2022-08-22T04:49:16.487Z,11.00
2022-08-22T04:52:21.799Z,11.10
2022-08-22T04:55:03.651Z,11.10
2022-08-22T04:57:41.942Z,11.20
2022-08-22T05:00:11.049Z,11.20
2022-08-22T05:02:43.001Z,11.20
2022-08-22T05:05:25.889Z,11.20
2022-08-22T05:07:56.266Z,11.20
2022-08-22T05:10:27.938Z,11.30
2022-08-22T05:13:02.741Z,11.30
2022-08-22T05:15:40.535Z,11.40
2022-08-22T05:18:13.909Z,11.50
2022-08-22T05:20:44.878Z,11.50
2022-08-22T05:23:18.612Z,11.60
2022-08-22T05:25:50.511Z,11.70
2022-08-22T05:28:38.776Z,11.70
2022-08-22T05:31:16.269Z,11.80
2022-08-22T05:33:47.719Z,11.90
2022-08-22T05:36:25.376Z,12.00
2022-08-22T05:38:59.036Z,12.00
2022-08-22T05:41:28.792Z,12.20
2022-08-22T05:43:55.983Z,12.20
2022-08-22T05:46:43.193Z,12.20
2022-08-22T05:49:32.757Z,12.20
2022-08-22T05:52:08.817Z,12.20
2022-08-22T05:54:49.121Z,12.40
2022-08-22T05:57:28.862Z,12.50
2022-08-22T06:00:20.382Z,12.60
2022-08-22T06:03:00.363Z,12.80
2022-08-22T06:05:30.736Z,12.70
2022-08-22T06:08:16.463Z,12.80
2022-08-22T06:10:51.193Z,13.00
2022-08-22T06:13:41.231Z,13.10
2022-08-22T06:16:08.268Z,13.20
2022-08-22T06:18:38.031Z,13.30
2022-08-22T06:21:10.556Z,13.40
2022-08-22T06:23:39.908Z,13.60
2022-08-22T06:26:21.224Z,13.80
2022-08-22T06:28:55.516Z,13.90
2022-08-22T06:31:32.308Z,14.00
2022-08-22T06:34:13.135Z,14.10
2022-08-22T06:36:43.098Z,14.30
2022-08-22T06:39:09.865Z,14.40
2022-08-22T06:41:43.030Z,14.50
2022-08-22T06:44:17.764Z,14.70
2022-08-22T06:46:47.619Z,14.80
2022-08-22T06:49:15.660Z,14.90
2022-08-22T06:51:43.774Z,15.10
2022-08-22T06:54:17.656Z,15.20
2022-08-22T06:56:49.381Z,15.30
2022-08-22T06:59:19.668Z,15.40
2022-08-22T07:01:52.999Z,15.60
2022-08-22T07:04:26.486Z,15.70
2022-08-22T07:06:56.901Z,15.80
2022-08-22T07:09:28.116Z,15.90
2022-08-22T07:11:57.616Z,16.00
2022-08-22T07:14:40.804Z,16.10
2022-08-22T07:17:14.465Z,16.20
2022-08-22T07:19:48.272Z,16.30
2022-08-22T07:22:28.423Z,16.50
2022-08-22T07:25:01.504Z,16.70
2022-08-22T07:27:31.380Z,16.90
2022-08-22T07:30:10.908Z,17.00
2022-08-22T07:32:58.021Z,16.90
2022-08-22T07:35:53.170Z,17.10
2022-08-22T07:38:35.057Z,17.20
2022-08-22T07:41:23.945Z,17.30
2022-08-22T07:44:06.367Z,17.40
2022-08-22T07:46:39.126Z,17.50
2022-08-22T07:49:22.940Z,17.70
2022-08-22T07:51:54.383Z,17.90
2022-08-22T07:54:42.903Z,18.00
2022-08-22T07:57:22.523Z,18.10
2022-08-22T07:59:54.438Z,18.20
2022-08-22T08:02:23.195Z,18.40
2022-08-22T08:04:53.517Z,18.50
2022-08-22T08:07:24.594Z,18.60
2022-08-22T08:09:56.768Z,18.60
2022-08-22T08:12:44.334Z,18.70
2022-08-22T08:15:25.797Z,18.80
2022-08-22T08:17:58.201Z,18.90
2022-08-22T08:20:26.216Z,18.90
2022-08-22T08:22:54.909Z,18.90
2022-08-22T08:25:29.134Z,18.90
2022-08-22T08:28:18.227Z,19.00
2022-08-22T08:30:55.361Z,19.20
2022-08-22T08:33:26.727Z,19.20
2022-08-22T08:36:06.369Z,19.30
2022-08-22T08:38:44.844Z,19.40
2022-08-22T08:41:11.539Z,19.40
2022-08-22T08:43:55.605Z,19.50
2022-08-22T08:46:40.968Z,19.50
2022-08-22T08:49:29.429Z,19.60
2022-08-22T08:52:22.093Z,19.60
2022-08-22T08:58:21.301Z,19.70
2022-08-22T09:01:18.743Z,19.80
2022-08-22T09:04:06.208Z,19.80
2022-08-22T09:06:52.928Z,19.90
2022-08-22T09:09:54.648Z,19.90
2022-08-22T09:12:36.544Z,20.00
2022-08-22T09:15:56.291Z,20.10
2022-08-22T09:18:59.124Z,20.10
2022-08-22T09:21:48.565Z,20.20
2022-08-22T09:24:44.845Z,20.20
2022-08-22T09:27:35.149Z,20.00
2022-08-22T09:30:08.761Z,19.90
2022-08-22T09:32:55.688Z,20.00
2022-08-22T09:35:29.968Z,20.00
2022-08-22T09:38:28.870Z,20.10
2022-08-22T09:40:15.240Z,19.70
2022-08-22T09:41:34.308Z,20.40
2022-08-22T09:44:16.552Z,20.60
2022-08-22T09:47:06.457Z,20.70
2022-08-22T09:50:03.519Z,20.90
2022-08-22T09:53:07.829Z,21.00
2022-08-22T09:55:52.663Z,21.10
2022-08-22T09:58:41.741Z,21.00
2022-08-22T10:01:40.125Z,21.20
2022-08-22T10:04:24.025Z,21.30
2022-08-22T10:07:52.740Z,21.40
2022-08-22T10:10:33.816Z,21.60
2022-08-22T10:13:31.883Z,21.70
2022-08-22T10:16:31.704Z,21.80
2022-08-22T10:19:16.592Z,21.90
2022-08-22T10:21:48.422Z,22.10
2022-08-22T10:24:51.745Z,22.20
2022-08-22T10:27:29.977Z,22.30
2022-08-22T10:30:08.956Z,22.50
2022-08-22T10:32:44.932Z,22.70
2022-08-22T10:35:28.987Z,23.00
2022-08-22T10:38:12.331Z,23.10
2022-08-22T10:40:53.360Z,23.10
2022-08-22T10:43:34.477Z,22.90
2022-08-22T10:46:12.650Z,22.90
2022-08-22T10:48:46.658Z,22.70
2022-08-22T10:51:19.939Z,22.40
2022-08-22T10:54:08.617Z,22.00
2022-08-22T10:56:43.871Z,22.00
2022-08-22T10:59:45.288Z,21.90
2022-08-22T11:02:29.193Z,21.60
2022-08-22T11:05:08.075Z,21.50
2022-08-22T11:07:50.258Z,21.40
2022-08-22T11:10:35.666Z,21.30
2022-08-22T11:13:15.609Z,21.40
2022-08-22T11:16:13.196Z,21.60
2022-08-22T11:19:01.867Z,21.60
2022-08-22T11:21:59.378Z,21.70
2022-08-22T11:24:35.339Z,22.00
2022-08-22T11:27:38.343Z,22.10
2022-08-22T11:30:36.398Z,22.20
2022-08-22T11:33:46.663Z,22.20
2022-08-22T11:36:18.400Z,22.40
2022-08-22T11:39:29.294Z,22.60
2022-08-22T11:42:31.227Z,22.80
2022-08-22T11:45:02.053Z,22.80
2022-08-22T11:47:34.315Z,22.80
2022-08-22T11:50:45.113Z,22.60
2022-08-22T11:53:26.443Z,22.20
2022-08-22T11:56:28.960Z,22.00
2022-08-22T11:59:10.459Z,22.00
2022-08-22T12:01:59.519Z,22.20
2022-08-22T12:04:26.238Z,22.60
2022-08-22T12:07:08.036Z,23.10
2022-08-22T12:10:02.525Z,23.40
2022-08-22T12:12:38.945Z,23.30
2022-08-22T12:15:25.612Z,23.00
2022-08-22T12:18:19.959Z,22.70
2022-08-22T12:21:06.261Z,22.40
2022-08-22T12:23:55.438Z,22.20
2022-08-22T12:26:58.141Z,22.10
2022-08-22T12:29:44.575Z,22.20
2022-08-22T12:32:52.204Z,22.50
2022-08-22T12:35:29.743Z,23.00
2022-08-22T12:38:27.894Z,23.30
2022-08-22T12:41:28.250Z,23.30
2022-08-22T12:44:07.757Z,23.00
2022-08-22T12:47:17.328Z,22.80
2022-08-22T12:50:07.682Z,23.00
2022-08-22T12:52:38.133Z,23.30
2022-08-22T12:55:07.847Z,23.70
2022-08-22T12:58:17.703Z,23.50
2022-08-22T13:00:47.387Z,23.10
2022-08-22T13:03:35.277Z,22.80
2022-08-22T13:06:27.299Z,22.70
2022-08-22T13:08:54.405Z,22.90
2022-08-22T13:11:23.738Z,23.30
2022-08-22T13:14:02.343Z,23.60
2022-08-22T13:16:48.948Z,23.80
2022-08-22T13:19:24.269Z,24.20
2022-08-22T13:22:02.267Z,24.50
2022-08-22T13:25:08.607Z,24.50
2022-08-22T13:27:50.766Z,24.50
2022-08-22T13:30:37.608Z,24.60
2022-08-22T13:33:15.900Z,24.30
2022-08-22T13:35:52.391Z,24.20
2022-08-22T13:38:40.257Z,24.40
2022-08-22T13:41:23.149Z,24.90
2022-08-22T13:44:09.203Z,25.30
2022-08-22T13:46:48.196Z,25.50
2022-08-22T13:49:36.527Z,25.60
2022-08-22T13:52:30.455Z,25.40
2022-08-22T13:55:05.112Z,24.90
2022-08-22T13:58:00.883Z,25.20
2022-08-22T14:01:07.349Z,25.70
2022-08-22T14:03:58.068Z,26.00
2022-08-22T14:06:43.992Z,26.10
2022-08-22T14:09:36.345Z,26.30
2022-08-22T14:12:23.593Z,26.30
2022-08-22T14:14:57.441Z,26.40
2022-08-22T14:17:35.475Z,26.40
2022-08-22T14:20:12.365Z,26.60
2022-08-22T14:22:42.621Z,26.70
2022-08-22T14:25:19.225Z,26.90
2022-08-22T14:27:57.643Z,27.00
2022-08-22T14:30:36.071Z,27.20
2022-08-22T14:33:22.133Z,27.10
2022-08-22T14:35:53.646Z,26.70
2022-08-22T14:38:33.033Z,26.50
2022-08-22T14:41:05.297Z,26.40
2022-08-22T14:43:52.392Z,25.90
2022-08-22T14:46:26.676Z,25.40
2022-08-22T14:49:06.602Z,25.50
2022-08-22T14:51:36.906Z,25.50
2022-08-22T14:54:21.230Z,25.60
2022-08-22T14:56:51.326Z,25.90
2022-08-22T14:59:33.278Z,26.20
2022-08-22T15:02:12.786Z,26.40
2022-08-22T15:04:43.693Z,26.50
2022-08-22T15:07:12.593Z,26.60
2022-08-22T15:09:51.850Z,26.90
2022-08-22T15:12:25.180Z,27.00
2022-08-22T15:14:57.133Z,27.00
2022-08-22T15:17:33.103Z,27.10
2022-08-22T15:20:28.491Z,27.30
2022-08-22T15:23:15.885Z,27.50
2022-08-22T15:25:46.891Z,27.50
2022-08-22T15:28:20.486Z,27.90
2022-08-22T15:30:59.993Z,28.40
2022-08-22T15:33:38.993Z,28.90
2022-08-22T15:36:23.189Z,29.60
2022-08-22T15:38:53.556Z,30.30
2022-08-22T15:41:44.901Z,30.70
2022-08-22T15:44:31.065Z,31.00
2022-08-22T15:47:24.317Z,31.50
2022-08-22T15:50:02.410Z,31.90
2022-08-22T15:52:35.454Z,32.40
2022-08-22T15:55:26.527Z,32.60
2022-08-22T15:58:23.898Z,32.50
2022-08-22T16:01:22.370Z,32.60
2022-08-22T16:04:07.767Z,33.00
2022-08-22T16:06:51.034Z,33.10
2022-08-22T16:09:50.057Z,33.70
2022-08-22T16:12:41.212Z,33.70
2022-08-22T16:15:46.570Z,33.60
2022-08-22T16:18:33.324Z,33.60
2022-08-22T16:21:15.741Z,33.60
2022-08-22T16:23:53.572Z,33.40
2022-08-22T16:26:36.869Z,32.90
2022-08-22T16:29:03.682Z,32.70
2022-08-22T16:31:39.601Z,32.80
2022-08-22T16:34:26.726Z,32.60
2022-08-22T16:37:08.878Z,32.80
2022-08-22T16:39:42.789Z,33.00
2022-08-22T16:42:15.729Z,32.80
2022-08-22T16:44:53.188Z,32.70
2022-08-22T16:47:21.213Z,32.30
2022-08-22T16:49:50.944Z,32.00
2022-08-22T16:52:23.861Z,31.80
2022-08-22T16:54:54.041Z,31.70
2022-08-22T16:57:31.038Z,31.70
2022-08-22T17:00:22.767Z,31.80
2022-08-22T17:03:08.670Z,31.90
2022-08-22T17:05:39.194Z,31.80
2022-08-22T17:08:43.297Z,31.90
2022-08-22T17:11:35.400Z,31.80
2022-08-22T17:14:40.176Z,31.70
2022-08-22T17:17:34.941Z,31.90
2022-08-22T17:20:34.237Z,31.70
2022-08-22T17:23:15.964Z,31.50
2022-08-22T17:25:51.653Z,31.00
2022-08-22T17:28:34.303Z,30.60
2022-08-22T17:31:06.418Z,30.40
2022-08-22T17:34:10.245Z,30.40
2022-08-22T17:36:53.105Z,30.10
2022-08-22T17:39:19.822Z,29.80
2022-08-22T17:42:27.397Z,29.70
2022-08-22T17:45:19.572Z,29.50
2022-08-22T17:47:52.474Z,28.90
2022-08-22T17:50:25.328Z,28.50
2022-08-22T17:53:09.008Z,28.10
2022-08-22T17:55:57.225Z,27.80
2022-08-22T17:58:37.633Z,27.40
2022-08-22T18:01:35.600Z,26.70
2022-08-22T18:04:04.606Z,26.00
2022-08-22T18:06:37.018Z,25.00
2022-08-22T18:09:18.568Z,24.50
2022-08-22T18:11:55.298Z,23.90
2022-08-22T18:14:29.610Z,23.30
2022-08-22T18:16:59.322Z,22.90
2022-08-22T18:19:57.905Z,22.50
2022-08-22T18:22:33.045Z,22.30
2022-08-22T18:25:20.411Z,22.10
2022-08-22T18:28:02.297Z,21.80
2022-08-22T18:30:50.581Z,21.50
2022-08-22T18:33:31.625Z,21.30
2022-08-22T18:36:09.004Z,21.10
2022-08-22T18:38:56.197Z,21.00
2022-08-22T18:41:53.962Z,20.90
2022-08-22T18:44:31.258Z,20.80
2022-08-22T18:47:13.857Z,20.60
2022-08-22T18:49:43.210Z,20.50
2022-08-22T18:52:09.857Z,20.20
2022-08-22T18:55:15.687Z,20.00
2022-08-22T18:58:10.540Z,19.80
2022-08-22T19:01:05.406Z,19.60
2022-08-22T19:03:41.187Z,19.40
2022-08-22T19:06:27.768Z,19.20
2022-08-22T19:09:32.170Z,18.80
2022-08-22T19:12:44.455Z,18.40
2022-08-22T19:15:41.366Z,18.30
2022-08-22T19:18:23.124Z,18.30
2022-08-22T19:21:34.618Z,18.20
2022-08-22T19:24:08.127Z,18.10
2022-08-22T19:26:39.215Z,17.80
2022-08-22T19:29:25.874Z,17.70
2022-08-22T19:32:12.710Z,17.70
2022-08-22T19:34:47.680Z,17.60
2022-08-22T19:37:32.016Z,17.50
2022-08-22T19:40:10.917Z,17.40
2022-08-22T19:42:44.098Z,17.10
2022-08-22T19:45:26.588Z,16.80
2022-08-22T19:48:10.493Z,16.60
2022-08-22T19:50:41.238Z,16.50
2022-08-22T19:53:46.322Z,16.50
2022-08-22T19:56:29.597Z,16.60
2022-08-22T19:59:22.873Z,16.60
2022-08-22T20:02:24.807Z,16.50
2022-08-22T20:05:35.034Z,16.40
2022-08-22T20:08:20.092Z,16.30
2022-08-22T20:11:24.730Z,16.20
2022-08-22T20:13:51.713Z,16.30
2022-08-22T20:16:23.652Z,16.10
2022-08-22T20:19:07.623Z,16.20
2022-08-22T20:22:24.808Z,16.10
2022-08-22T20:24:58.888Z,15.90
2022-08-22T20:27:28.309Z,15.70
2022-08-22T20:30:13.662Z,15.70
2022-08-22T20:32:55.924Z,15.80
2022-08-22T20:35:34.712Z,15.80
2022-08-22T20:38:08.840Z,15.80
2022-08-22T20:41:02.800Z,15.80
2022-08-22T20:43:55.202Z,15.60
2022-08-22T20:46:53.421Z,15.50
2022-08-22T20:49:31.863Z,15.20
2022-08-22T20:52:07.931Z,15.10
2022-08-22T20:54:38.066Z,15.10
2022-08-22T20:57:17.447Z,15.10
2022-08-22T20:59:56.590Z,15.10
2022-08-22T21:02:33.900Z,15.00
2022-08-22T21:05:12.609Z,14.90
2022-08-22T21:07:42.421Z,15.10
2022-08-22T21:10:34.492Z,15.20
2022-08-22T21:13:13.354Z,15.20
2022-08-22T21:15:45.675Z,15.10
2022-08-22T21:18:23.806Z,14.90
2022-08-22T21:20:51.077Z,14.30
2022-08-22T21:23:18.173Z,14.30
2022-08-22T21:25:57.920Z,14.30
2022-08-22T21:28:27.597Z,14.20
2022-08-22T21:30:54.371Z,14.40
2022-08-22T21:33:24.577Z,14.40
2022-08-22T21:36:00.891Z,14.40
2022-08-22T21:38:28.809Z,14.40
2022-08-22T21:41:01.874Z,14.40
2022-08-22T21:43:37.042Z,14.40
2022-08-22T21:46:05.664Z,14.40
2022-08-22T21:48:43.897Z,14.30
2022-08-22T21:51:29.396Z,14.30
2022-08-22T21:54:33.485Z,14.30
2022-08-22T21:57:16.129Z,14.40
2022-08-22T21:59:59.676Z,14.30
2022-08-22T22:02:39.722Z,14.10
2022-08-22T22:05:13.014Z,13.80
2022-08-22T22:07:42.684Z,13.70
2022-08-22T22:10:12.338Z,13.60
2022-08-22T22:12:40.817Z,13.50
2022-08-22T22:15:09.286Z,13.50
2022-08-22T22:17:35.977Z,13.40
2022-08-22T22:20:03.510Z,13.50
2022-08-22T22:22:30.178Z,13.60
2022-08-22T22:24:56.929Z,13.60
2022-08-22T22:27:23.623Z,13.50
2022-08-22T22:29:50.337Z,13.50
2022-08-22T22:32:17.005Z,13.30
2022-08-22T22:34:44.353Z,13.10
2022-08-22T22:37:11.922Z,13.00
2022-08-22T22:39:39.287Z,13.10
2022-08-22T22:42:06.269Z,13.10
2022-08-22T22:44:33.257Z,13.10
2022-08-22T22:47:04.843Z,13.20
2022-08-22T22:49:32.409Z,13.20
2022-08-22T22:52:00.360Z,13.10
2022-08-22T22:54:27.557Z,13.10
2022-08-22T22:56:56.509Z,12.80
2022-08-22T22:59:25.404Z,12.80
2022-08-22T23:02:06.604Z,12.80
2022-08-22T23:04:35.637Z,12.90
2022-08-22T23:07:02.708Z,12.70
2022-08-22T23:09:38.390Z,12.50
2022-08-22T23:12:11.248Z,12.60
2022-08-22T23:14:37.948Z,12.60
2022-08-22T23:17:04.903Z,12.70
2022-08-22T23:19:31.628Z,12.80
2022-08-22T23:22:00.921Z,12.90
2022-08-22T23:24:29.767Z,12.80
2022-08-22T23:26:56.994Z,12.70
2022-08-22T23:29:23.980Z,12.50
2022-08-22T23:31:54.104Z,12.70
2022-08-22T23:34:24.845Z,12.60
2022-08-22T23:36:54.172Z,12.70
2022-08-22T23:39:23.573Z,12.80
2022-08-22T23:41:51.030Z,12.70
2022-08-22T23:44:20.055Z,12.70
2022-08-22T23:46:47.454Z,12.80
2022-08-22T23:49:15.597Z,12.90
2022-08-22T23:51:43.404Z,12.80
2022-08-22T23:54:10.558Z,12.80
2022-08-22T23:56:43.013Z,12.60
2022-08-22T23:59:13.052Z,12.50
